createdAt,value
2023-04-16T00:00:58.066Z,21.12
2023-04-16T00:06:04.012Z,21.07
2023-04-16T00:11:07.901Z,20.73
2023-04-16T00:16:11.556Z,20.75
2023-04-16T00:21:16.836Z,20.54
2023-04-16T00:26:19.652Z,20.60
2023-04-16T00:31:28.554Z,20.39
2023-04-16T00:36:33.902Z,20.36
2023-04-16T00:41:36.726Z,20.19
2023-04-16T00:46:40.632Z,19.99
2023-04-16T00:51:45.957Z,19.69
2023-04-16T00:56:50.031Z,19.49
2023-04-16T01:01:53.675Z,19.29
2023-04-16T01:06:58.973Z,19.03
2023-04-16T01:12:02.672Z,18.92
2023-04-16T01:17:06.374Z,19.05
2023-04-16T01:22:11.678Z,18.57
2023-04-16T01:27:15.285Z,18.35
2023-04-16T01:32:18.881Z,18.23
2023-04-16T01:37:24.160Z,17.84
2023-04-16T01:42:27.789Z,17.59
2023-04-16T01:47:31.423Z,17.31
2023-04-16T01:52:36.750Z,17.34
2023-04-16T01:57:40.538Z,17.12
2023-04-16T02:02:44.323Z,17.13
2023-04-16T02:07:49.851Z,16.76
2023-04-16T02:12:53.424Z,16.58
2023-04-16T02:17:57.369Z,16.22
2023-04-16T02:23:02.791Z,16.02
2023-04-16T02:28:06.638Z,15.50
2023-04-16T02:33:11.991Z,15.07
2023-04-16T02:38:17.235Z,14.94
2023-04-16T02:43:20.821Z,14.59
2023-04-16T02:48:24.520Z,14.25
2023-04-16T02:53:29.801Z,13.94
2023-04-16T02:58:33.518Z,13.83
2023-04-16T03:03:37.116Z,13.65
2023-04-16T03:08:42.389Z,13.46
2023-04-16T03:13:45.976Z,13.37
2023-04-16T03:18:49.667Z,13.21
2023-04-16T03:23:55.018Z,13.07
2023-04-16T03:28:58.633Z,12.94
2023-04-16T03:34:02.237Z,12.75
2023-04-16T03:39:07.799Z,12.61
2023-04-16T03:44:11.657Z,12.62
2023-04-16T03:49:15.290Z,12.64
2023-04-16T03:54:22.554Z,12.55
2023-04-16T03:59:26.746Z,12.44
2023-04-16T04:04:30.444Z,12.24
2023-04-16T04:09:35.807Z,12.14
2023-04-16T04:14:39.446Z,12.13
2023-04-16T04:19:54.255Z,12.09
2023-04-16T04:25:07.096Z,12.02
2023-04-16T04:30:11.975Z,11.92
2023-04-16T04:35:15.694Z,11.88
2023-04-16T04:40:21.288Z,11.78
2023-04-16T04:45:25.209Z,11.59
2023-04-16T04:50:29.027Z,11.59
2023-04-16T04:55:34.273Z,11.63
2023-04-16T05:00:37.940Z,11.54
2023-04-16T05:05:41.588Z,11.60
2023-04-16T05:10:46.994Z,11.51
2023-04-16T05:15:51.370Z,11.29
2023-04-16T05:20:55.007Z,11.28
2023-04-16T05:26:00.290Z,11.25
2023-04-16T05:31:04.096Z,11.06
2023-04-16T05:36:08.041Z,11.09
2023-04-16T05:41:13.408Z,10.99
2023-04-16T05:46:17.096Z,10.99
2023-04-16T05:51:20.777Z,10.87
2023-04-16T05:56:26.191Z,10.82
2023-04-16T06:01:29.839Z,10.82
2023-04-16T06:06:33.566Z,10.80
2023-04-16T06:11:38.937Z,10.71
2023-04-16T06:16:42.566Z,10.68
2023-04-16T06:21:46.246Z,10.67
2023-04-16T06:26:51.567Z,10.65
2023-04-16T06:31:55.440Z,10.67
2023-04-16T06:36:59.233Z,10.59
2023-04-16T06:42:05.748Z,10.63
2023-04-16T06:47:09.562Z,10.66
2023-04-16T06:52:13.531Z,10.60
2023-04-16T06:57:19.850Z,10.45
2023-04-16T07:02:23.658Z,10.40
2023-04-16T07:07:27.392Z,10.40
2023-04-16T07:12:33.170Z,10.38
2023-04-16T07:17:36.811Z,10.39
2023-04-16T07:22:40.449Z,10.31
2023-04-16T07:27:45.778Z,10.14
2023-04-16T07:32:50.075Z,9.99
2023-04-16T07:37:53.674Z,9.90
2023-04-16T07:42:59.023Z,9.88
2023-04-16T07:48:02.779Z,9.94
2023-04-16T07:53:06.512Z,9.91
2023-04-16T07:58:11.721Z,9.93
2023-04-16T08:03:15.522Z,9.90
2023-04-16T08:08:19.229Z,9.69
2023-04-16T08:13:24.810Z,9.68
2023-04-16T08:18:28.423Z,9.48
2023-04-16T08:23:32.061Z,9.48
2023-04-16T08:28:37.298Z,9.54
2023-04-16T08:33:41.864Z,9.57
2023-04-16T08:38:45.473Z,9.57
2023-04-16T08:43:55.391Z,9.70
2023-04-16T08:49:01.415Z,9.68
2023-04-16T08:54:06.139Z,9.74
2023-04-16T08:59:11.664Z,9.71
2023-04-16T09:04:16.606Z,9.67
2023-04-16T09:09:22.008Z,9.57
2023-04-16T09:14:27.763Z,9.67
2023-04-16T09:19:31.414Z,9.69
2023-04-16T09:24:35.805Z,9.71
2023-04-16T09:29:41.790Z,9.56
2023-04-16T09:34:59.251Z,9.60
2023-04-16T09:40:03.714Z,9.59
2023-04-16T09:45:09.821Z,9.61
2023-04-16T09:50:18.190Z,9.52
2023-04-16T09:55:27.899Z,9.48
2023-04-16T10:00:33.250Z,9.47
2023-04-16T10:05:36.875Z,9.47
2023-04-16T10:10:41.262Z,9.47
2023-04-16T10:15:47.595Z,9.40
2023-04-16T10:20:51.082Z,9.42
2023-04-16T10:25:57.584Z,9.30
2023-04-16T10:31:04.669Z,9.28
2023-04-16T10:36:12.337Z,9.32
2023-04-16T10:41:16.483Z,9.11
2023-04-16T10:46:23.534Z,9.21
2023-04-16T10:51:30.186Z,9.31
2023-04-16T10:56:34.620Z,9.34
2023-04-16T11:01:43.264Z,9.33
2023-04-16T11:07:02.390Z,9.26
2023-04-16T11:12:12.612Z,9.22
2023-04-16T11:17:18.526Z,9.18
2023-04-16T11:22:22.579Z,9.08
2023-04-16T11:27:26.660Z,9.22
2023-04-16T11:32:33.012Z,9.20
2023-04-16T11:37:36.354Z,9.19
2023-04-16T11:42:41.092Z,9.17
2023-04-16T11:47:48.292Z,9.17
2023-04-16T11:52:52.951Z,9.13
2023-04-16T11:57:56.585Z,9.15
2023-04-16T12:03:04.842Z,9.18
2023-04-16T12:08:09.984Z,9.16
2023-04-16T12:13:15.030Z,8.86
2023-04-16T12:18:21.351Z,8.96
2023-04-16T12:23:24.706Z,8.85
2023-04-16T12:28:29.872Z,8.89
2023-04-16T12:33:35.202Z,8.89
2023-04-16T12:38:38.815Z,8.88
2023-04-16T12:43:42.461Z,8.95
2023-04-16T12:48:47.785Z,9.03
2023-04-16T12:53:51.461Z,9.17
2023-04-16T12:58:55.130Z,9.04
2023-04-16T13:04:00.623Z,8.98
2023-04-16T13:09:04.746Z,8.90
2023-04-16T13:14:09.569Z,9.01
2023-04-16T13:19:14.837Z,8.92
2023-04-16T13:24:18.488Z,8.87
2023-04-16T13:29:22.240Z,9.05
2023-04-16T13:34:27.592Z,9.06
2023-04-16T13:39:31.192Z,9.11
2023-04-16T13:44:34.906Z,9.27
2023-04-16T13:49:40.169Z,9.21
2023-04-16T13:54:43.753Z,9.31
2023-04-16T13:59:47.514Z,9.27
2023-04-16T14:04:52.777Z,9.39
2023-04-16T14:09:56.371Z,9.46
2023-04-16T14:15:00.137Z,9.56
2023-04-16T14:20:05.819Z,9.57
2023-04-16T14:25:09.838Z,9.97
2023-04-16T14:30:13.844Z,10.24
2023-04-16T14:35:20.362Z,10.54
2023-04-16T14:40:23.994Z,10.95
2023-04-16T14:45:27.624Z,11.10
2023-04-16T14:50:34.585Z,11.31
2023-04-16T14:55:38.230Z,11.31
2023-04-16T15:00:41.930Z,11.59
2023-04-16T15:05:47.251Z,11.78
2023-04-16T15:10:51.244Z,12.26
2023-04-16T15:15:54.844Z,12.72
2023-04-16T15:21:00.307Z,13.35
2023-04-16T15:26:03.894Z,13.56
2023-04-16T15:31:07.522Z,13.74
2023-04-16T15:36:12.817Z,13.99
2023-04-16T15:41:16.416Z,13.95
2023-04-16T15:46:20.068Z,14.05
2023-04-16T15:51:25.415Z,14.14
2023-04-16T15:56:29.093Z,14.47
2023-04-16T16:01:32.790Z,14.36
2023-04-16T16:06:38.233Z,14.72
2023-04-16T16:11:41.842Z,15.28
2023-04-16T16:16:45.589Z,15.72
2023-04-16T16:21:50.904Z,16.33
2023-04-16T16:26:54.546Z,16.90
2023-04-16T16:31:58.248Z,17.24
2023-04-16T16:37:05.048Z,17.09
2023-04-16T16:42:08.677Z,17.62
2023-04-16T16:47:12.250Z,18.22
2023-04-16T16:52:18.734Z,18.61
2023-04-16T16:57:22.334Z,18.49
2023-04-16T17:02:26.017Z,18.83
2023-04-16T17:07:31.331Z,18.43
2023-04-16T17:12:34.929Z,18.11
2023-04-16T17:17:38.571Z,18.72
2023-04-16T17:28:10.941Z,18.74
2023-04-16T17:33:14.613Z,18.53
2023-04-16T17:38:19.930Z,18.56
2023-04-16T17:43:23.547Z,18.94
2023-04-16T17:48:27.186Z,19.69
2023-04-16T17:53:32.571Z,19.98
2023-04-16T17:58:36.539Z,20.19
2023-04-16T18:03:40.857Z,20.18
2023-04-16T18:08:46.285Z,20.26
2023-04-16T18:13:50.434Z,20.12
2023-04-16T18:18:54.094Z,20.08
2023-04-16T18:23:59.295Z,20.20
2023-04-16T18:29:03.116Z,20.07
2023-04-16T18:34:06.951Z,20.06
2023-04-16T18:39:13.069Z,19.93
2023-04-16T18:44:16.799Z,20.47
2023-04-16T18:49:20.462Z,20.74
2023-04-16T18:54:25.744Z,20.57
2023-04-16T18:59:29.354Z,20.89
2023-04-16T19:04:33.158Z,20.92
2023-04-16T19:09:38.559Z,20.66
2023-04-16T19:14:42.159Z,20.68
2023-04-16T19:19:45.820Z,20.05
2023-04-16T19:24:51.177Z,20.23
2023-04-16T19:29:55.674Z,19.92
2023-04-16T19:34:59.352Z,19.78
2023-04-16T19:40:04.871Z,20.58
2023-04-16T19:45:09.390Z,20.89
2023-04-16T19:50:13.155Z,21.26
2023-04-16T19:55:18.672Z,21.36
2023-04-16T20:00:25.537Z,21.14
2023-04-16T20:05:29.546Z,21.39
2023-04-16T20:10:34.928Z,21.50
2023-04-16T20:15:38.584Z,21.57
2023-04-16T20:20:42.244Z,21.57
2023-04-16T20:25:47.516Z,21.57
2023-04-16T20:30:50.458Z,21.42
2023-04-16T20:35:54.094Z,21.36
2023-04-16T20:40:59.434Z,21.11
2023-04-16T20:46:02.244Z,21.33
2023-04-16T20:51:07.225Z,21.67
2023-04-16T20:56:13.561Z,21.65
2023-04-16T21:01:17.328Z,21.55
2023-04-16T21:06:21.011Z,21.58
2023-04-16T21:11:26.497Z,21.85
2023-04-16T21:16:30.590Z,22.07
2023-04-16T21:21:34.270Z,21.94
2023-04-16T21:26:39.516Z,21.66
2023-04-16T21:31:42.378Z,21.64
2023-04-16T21:36:46.028Z,21.77
2023-04-16T21:41:51.323Z,21.88
2023-04-16T21:46:54.925Z,21.92
2023-04-16T21:51:58.573Z,21.87
2023-04-16T21:57:03.833Z,21.71
2023-04-16T22:02:06.776Z,21.43
2023-04-16T22:07:10.638Z,21.25
2023-04-16T22:12:15.904Z,21.33
2023-04-16T22:17:18.774Z,21.18
2023-04-16T22:22:22.902Z,21.33
2023-04-16T22:27:28.147Z,21.31
2023-04-16T22:32:31.150Z,21.26
2023-04-16T22:37:34.884Z,20.98
2023-04-16T22:42:42.367Z,20.79
2023-04-16T22:47:46.139Z,20.67
2023-04-16T22:52:52.796Z,20.34
2023-04-16T22:57:58.092Z,20.15
2023-04-16T23:03:00.980Z,20.14
2023-04-16T23:08:04.681Z,20.17
2023-04-16T23:13:10.049Z,20.21
2023-04-16T23:18:13.819Z,19.95
2023-04-16T23:23:17.494Z,19.75
2023-04-16T23:28:22.907Z,19.74
2023-04-16T23:33:25.737Z,18.75
2023-04-16T23:38:29.316Z,18.32
2023-04-16T23:43:34.709Z,17.83
2023-04-16T23:48:38.549Z,17.48
2023-04-16T23:53:42.184Z,17.18
2023-04-16T23:58:47.471Z,17.53
